Pagrindinis puslapis
METAR-TAF:

METAR-TAF

Oro uostai :

Klužas-Napoka, Rumunija

platuma: 46-47N, ilguma: 023-34E, Aukštis: 315 m

Dabartinis oras

Ataskaita buvo paskelbta 26 minutes, ne 15:30 UTC
Vėjas 7 kt iš Vakarų/Šiaurės Vakarų
Temperatūra 13°C
Drėgmė 44%
Slėgis 1008 hPa
Matomumas 10 km arba daugiau
Mažai debesys ne aukštis 6700 ft

METAR: LRCL 291530Z 30007KT 9999 FEW067 13/01 Q1008

Laikas: 18:56 (15:56 UTC)

Prognozė

Ataskaita buvo paskelbta 1 valandą ir 56 minutes, ne 14:00 UTC
Prognozė galioja nuo 29 metu 15 UTC su 29 metu 24 UTC
Vėjas 12 kt iš Vakarų/Pietvakarių
Matomumas 10 km arba daugiau
nėra debesų žemiau 1500 m ir nėra kamuolinių lietaus debesų
Tapsmas
nuo 29 metu 15 UTC su 29 metu 17 UTC
Vėjas 3 kt nuo kintamojo kryptimis
Tikimybė 30% :
Laikinai
nuo 29 metu 15 UTC su 29 metu 17 UTC
Matomumas: 5000 m
Išsisklaidę debesys ne aukštis 3000 ft, Liūtiniai kamuoliniai debesys.
Su prošvaistėmis ne aukštis 4000 ft
lietus

TAF: LRCL 291400Z 2915/2924 25012KT CAVOK BECMG 2915/2917 VRB03KT PROB30 TEMPO 2915/2917 5000 SHRA SCT030CB BKN040

Orai ataskaitas ir orų prognozės (METAR, TAF).

turimą stotys yra geltonos ir raudonos taškus žemėlapyje.

Perkelti pele per norėdami pamatyti stoties vardą.

Tada spustelėkite, norėdami matyti oro stebėjimo ir prognozės.

Norėdami pakeisti žemėlapį: spustelėkite ant žalios mygtukų su juodo kryžiaus žemyn,; žalią mygtuką su brūkšneliu, jei norite nutolinti; arba žalių rodyklių gretimoms žemėlapius.


METAR-TAF: